createdAt,value
2022-11-04T00:09:15.703Z,100
2022-11-04T00:24:12.237Z,100
2022-11-04T00:39:08.520Z,100
2022-11-04T00:54:04.501Z,100
2022-11-04T01:09:00.250Z,100
2022-11-04T01:23:56.232Z,100
2022-11-04T01:38:53.147Z,100
2022-11-04T01:53:48.539Z,100
2022-11-04T02:08:44.353Z,100
2022-11-04T02:23:40.598Z,100
2022-11-04T02:38:36.902Z,100
2022-11-04T02:53:32.538Z,100
2022-11-04T03:08:28.354Z,100
2022-11-04T03:23:24.582Z,100
2022-11-04T03:38:20.978Z,100
2022-11-04T03:53:17.138Z,100
2022-11-04T04:08:13.174Z,100
2022-11-04T04:23:09.266Z,100
2022-11-04T04:38:05.721Z,100
2022-11-04T04:53:01.698Z,100
2022-11-04T05:07:57.763Z,100
2022-11-04T05:22:54.207Z,100
2022-11-04T05:37:50.341Z,100
2022-11-04T05:52:46.929Z,100
2022-11-04T06:07:43.146Z,100
2022-11-04T06:22:39.314Z,100
2022-11-04T06:37:35.346Z,100
2022-11-04T06:52:32.029Z,100
2022-11-04T07:07:28.987Z,100
2022-11-04T07:22:25.721Z,100
2022-11-04T07:37:22.319Z,100
2022-11-04T07:52:19.195Z,100
2022-11-04T08:07:16.002Z,100
2022-11-04T08:22:12.504Z,100
2022-11-04T08:37:08.930Z,100
2022-11-04T08:52:05.718Z,100
2022-11-04T09:07:06.891Z,100
2022-11-04T09:21:58.996Z,100
2022-11-04T09:36:54.956Z,100
2022-11-04T09:51:55.101Z,100
2022-11-04T10:06:48.333Z,99.01
2022-11-04T10:21:45.117Z,97.79
2022-11-04T10:36:41.509Z,91.35
2022-11-04T10:51:37.970Z,85.83
2022-11-04T11:06:34.623Z,86.36
2022-11-04T11:21:30.781Z,86.59
2022-11-04T11:36:26.788Z,87.57
2022-11-04T11:51:26.282Z,87.96
2022-11-04T12:06:19.461Z,87.02
2022-11-04T12:21:15.594Z,86.49
2022-11-04T12:36:12.901Z,86.06
2022-11-04T12:51:08.572Z,91.64
2022-11-04T13:06:05.005Z,99.15
2022-11-04T13:21:02.822Z,100
2022-11-04T13:35:56.527Z,100
2022-11-04T13:39:58.080Z,100
2022-11-04T13:54:54.393Z,100
2022-11-04T14:09:50.304Z,100
2022-11-04T14:24:46.706Z,100
2022-11-04T14:39:43.004Z,100
2022-11-04T14:54:38.967Z,100
2022-11-04T15:09:35.496Z,100
2022-11-04T15:24:31.357Z,100
2022-11-04T15:39:27.294Z,100
2022-11-04T15:54:23.016Z,100
2022-11-04T16:09:19.129Z,100
2022-11-04T16:24:15.439Z,100
2022-11-04T16:39:11.784Z,100
2022-11-04T16:54:07.956Z,100
2022-11-04T17:09:04.639Z,100
2022-11-04T17:24:00.220Z,100
2022-11-04T17:27:21.484Z,100
2022-11-04T17:42:17.851Z,100
2022-11-04T17:57:13.823Z,100
2022-11-04T18:12:10.270Z,100
2022-11-04T18:22:30.590Z,100
2022-11-04T18:27:00.353Z,100
2022-11-04T18:41:56.696Z,100
2022-11-04T18:56:52.860Z,100
2022-11-04T19:11:49.081Z,100
2022-11-04T19:26:44.611Z,100
2022-11-04T19:41:41.194Z,100
2022-11-04T19:56:37.109Z,100
2022-11-04T20:11:33.352Z,100
2022-11-04T20:26:29.410Z,100
2022-11-04T20:41:26.182Z,100
2022-11-04T20:56:22.233Z,100
2022-11-04T21:11:18.446Z,100
2022-11-04T21:26:14.322Z,100
2022-11-04T21:41:10.325Z,100
2022-11-04T21:56:06.337Z,100
2022-11-04T22:11:02.824Z,100
2022-11-04T22:25:59.041Z,100
2022-11-04T22:40:55.825Z,100
2022-11-04T22:55:51.659Z,100
2022-11-04T23:10:48.464Z,100
2022-11-04T23:20:59.294Z,100
2022-11-04T23:35:55.572Z,100
2022-11-04T23:50:51.572Z,100
